Time;durP1;ratioP1;P1;durP2;ratioP2;P2;SDS_P1;SDS_P2;PMS_P1;PMS_P2;Temp;Humidity;BMP_temperature;BMP_pressure;BME280_temperature;BME280_humidity;BME280_pressure;Samples;Min_cycle;Max_cycle;Signal;HPM_P1;HPM_P2
2023/04/18 19:40:35;;;;;;;13.73;9.80;;;14.10;96.20;;;;;;4166768;27;20116;-54
2023/04/18 19:42:37;;;;;;;12.70;9.85;;;14.20;95.90;;;;;;4226168;28;20058;-55
2023/04/18 19:44:39;;;;;;;12.02;10.27;;;14.10;96.20;;;;;;4225845;28;20078;-58
2023/04/18 19:46:41;;;;;;;10.77;9.65;;;14.10;96.00;;;;;;4220938;28;20048;-55
2023/04/18 19:48:43;;;;;;;12.98;9.27;;;14.10;96.00;;;;;;4196920;28;20039;-57
2023/04/18 19:50:45;;;;;;;17.05;9.77;;;14.10;96.10;;;;;;4183872;28;20048;-55
2023/04/18 19:52:48;;;;;;;13.88;10.35;;;14.10;96.00;;;;;;4242593;28;20065;-55
2023/04/18 19:54:52;;;;;;;12.30;9.35;;;14.10;96.20;;;;;;4227290;28;20077;-55
2023/04/18 19:56:58;;;;;;;13.30;10.13;;;14.10;96.30;;;;;;4238183;28;20051;-55
2023/04/18 19:59:01;;;;;;;12.88;9.55;;;14.10;96.50;;;;;;4233624;28;20051;-55
2023/04/18 20:01:04;;;;;;;11.85;9.85;;;14.00;96.80;;;;;;4239785;28;20048;-55
2023/04/18 20:03:06;;;;;;;12.57;9.80;;;13.90;96.90;;;;;;4240686;28;20036;-53
2023/04/18 20:05:10;;;;;;;11.32;9.80;;;13.90;97.00;;;;;;4235192;28;20055;-52
2023/04/18 20:07:12;;;;;;;13.23;10.63;;;13.90;97.30;;;;;;4239526;28;20047;-55
2023/04/18 20:09:15;;;;;;;13.07;9.90;;;13.80;97.40;;;;;;4237801;28;20039;-56
2023/04/18 20:11:17;;;;;;;12.65;10.55;;;13.90;97.50;;;;;;4217476;28;20040;-56
2023/04/18 20:13:21;;;;;;;13.52;9.82;;;13.80;97.60;;;;;;4228516;28;20050;-56
2023/04/18 20:15:23;;;;;;;14.27;10.27;;;13.80;97.60;;;;;;4238247;28;20085;-56
2023/04/18 20:17:33;;;;;;;14.77;10.65;;;13.80;97.50;;;;;;4234677;28;20384;-56
2023/04/18 20:19:36;;;;;;;15.05;11.30;;;13.80;97.20;;;;;;4236727;28;20661;-60
2023/04/18 20:21:38;;;;;;;15.20;12.15;;;13.90;97.50;;;;;;4232955;28;20089;-55
2023/04/18 20:23:44;;;;;;;17.48;11.75;;;13.90;97.10;;;;;;4212973;28;20401;-55
2023/04/18 20:25:46;;;;;;;12.88;11.55;;;13.90;97.20;;;;;;4241025;28;20040;-57
2023/04/18 20:27:48;;;;;;;16.02;12.13;;;13.90;96.90;;;;;;4238435;28;20040;-56
2023/04/18 20:29:52;;;;;;;14.57;12.30;;;13.90;96.80;;;;;;4234240;28;20118;-58
2023/04/18 20:31:57;;;;;;;14.40;11.60;;;13.90;97.20;;;;;;4237176;28;20412;-57
2023/04/18 20:34:00;;;;;;;14.57;11.02;;;13.80;96.80;;;;;;4244080;28;20043;-64
2023/04/18 20:36:06;;;;;;;13.68;11.52;;;13.80;96.80;;;;;;4240531;28;20051;-55
2023/04/18 20:38:09;;;;;;;12.13;10.80;;;13.80;96.80;;;;;;4229740;28;20389;-55
2023/04/18 20:40:12;;;;;;;19.23;12.50;;;13.80;96.80;;;;;;4234373;28;20083;-55
2023/04/18 20:42:14;;;;;;;14.70;11.88;;;13.70;97.00;;;;;;4237390;28;20039;-55
2023/04/18 20:44:21;;;;;;;14.52;11.65;;;13.70;96.90;;;;;;4240614;28;20138;-55
2023/04/18 20:46:24;;;;;;;16.15;12.07;;;13.70;96.70;;;;;;4228235;28;20108;-62
2023/04/18 20:48:26;;;;;;;15.63;11.90;;;13.70;96.70;;;;;;4229300;28;20589;-55
2023/04/18 20:50:29;;;;;;;14.63;12.15;;;13.70;96.60;;;;;;4226475;28;20412;-56
2023/04/18 20:52:31;;;;;;;14.90;12.50;;;13.70;96.50;;;;;;4227890;28;20092;-56
2023/04/18 20:54:34;;;;;;;17.13;11.80;;;13.70;96.50;;;;;;4226374;28;20051;-56
2023/04/18 20:56:36;;;;;;;16.92;12.32;;;13.70;96.50;;;;;;4214747;28;20044;-54
2023/04/18 20:58:38;;;;;;;17.83;12.50;;;13.80;96.50;;;;;;4226704;28;20410;-54
2023/04/18 21:00:40;;;;;;;15.95;12.27;;;13.80;96.20;;;;;;4218486;28;20040;-56
2023/04/18 21:02:48;;;;;;;13.10;11.70;;;13.70;96.10;;;;;;4218914;28;20040;-55
2023/04/18 21:04:50;;;;;;;16.20;12.48;;;13.80;96.50;;;;;;4223027;28;20056;-56
2023/04/18 21:06:53;;;;;;;13.55;11.80;;;13.80;96.10;;;;;;4214803;28;20139;-55
2023/04/18 21:08:55;;;;;;;14.23;11.93;;;13.80;96.10;;;;;;4219715;28;20048;-55
2023/04/18 21:10:57;;;;;;;14.13;12.45;;;13.70;96.20;;;;;;4219691;28;20047;-55
2023/04/18 21:12:59;;;;;;;14.68;11.55;;;13.80;96.30;;;;;;4223340;28;20046;-57
2023/04/18 21:15:04;;;;;;;15.70;12.27;;;13.80;96.10;;;;;;4223421;28;20060;-56
2023/04/18 21:17:09;;;;;;;14.98;12.80;;;13.80;96.00;;;;;;4221028;28;20040;-63
2023/04/18 21:19:12;;;;;;;15.02;13.18;;;13.80;96.10;;;;;;4222976;28;20036;-55
2023/04/18 21:21:14;;;;;;;17.77;12.85;;;13.80;95.90;;;;;;4208610;28;20050;-52
2023/04/18 21:23:16;;;;;;;17.52;12.98;;;13.70;95.90;;;;;;4220465;28;20114;-55
2023/04/18 21:25:20;;;;;;;16.08;13.10;;;13.80;96.00;;;;;;4220866;28;20062;-55
2023/04/18 21:27:22;;;;;;;15.15;12.68;;;13.70;96.00;;;;;;4221614;28;20451;-55
2023/04/18 21:29:25;;;;;;;16.38;12.68;;;13.70;96.20;;;;;;4220546;28;20040;-56
2023/04/18 21:31:29;;;;;;;14.90;12.73;;;13.70;96.00;;;;;;4224233;28;20122;-56
2023/04/18 21:33:37;;;;;;;17.00;13.00;;;13.70;96.00;;;;;;4216328;28;20046;-57
2023/04/18 21:35:41;;;;;;;17.90;13.13;;;13.70;96.00;;;;;;4221018;28;20127;-55
2023/04/18 21:37:43;;;;;;;15.98;12.88;;;13.70;96.10;;;;;;4223294;28;20055;-66
2023/04/18 21:39:45;;;;;;;17.98;13.70;;;13.80;96.00;;;;;;4220911;28;20497;-56
2023/04/18 21:41:47;;;;;;;18.17;12.73;;;13.80;96.10;;;;;;4225132;28;20036;-55
2023/04/18 21:43:49;;;;;;;15.90;13.13;;;13.80;95.90;;;;;;4229847;28;20052;-59
2023/04/18 21:45:51;;;;;;;16.02;12.75;;;13.80;96.10;;;;;;4219924;28;20132;-58
2023/04/18 21:47:53;;;;;;;16.33;12.88;;;13.80;96.10;;;;;;4221819;28;20539;-53
2023/04/18 21:49:56;;;;;;;18.08;13.60;;;13.70;96.10;;;;;;4223733;28;20047;-52
2023/04/18 21:52:00;;;;;;;15.13;13.07;;;13.60;96.30;;;;;;4218684;28;20054;-58
2023/04/18 21:54:02;;;;;;;19.33;13.63;;;13.70;96.20;;;;;;4223835;28;20460;-58
2023/04/18 21:56:05;;;;;;;16.58;12.80;;;13.60;96.20;;;;;;4214026;28;20367;-53
2023/04/18 21:58:07;;;;;;;15.27;12.85;;;13.60;96.10;;;;;;4206333;28;20161;-53
2023/04/18 22:00:10;;;;;;;15.90;13.32;;;13.60;96.20;;;;;;4223006;28;20408;-55
2023/04/18 22:02:12;;;;;;;17.50;12.52;;;13.50;96.00;;;;;;4217230;28;20048;-55
2023/04/18 22:04:14;;;;;;;16.20;12.30;;;13.50;96.50;;;;;;4216104;28;20048;-56
2023/04/18 22:06:17;;;;;;;17.90;13.77;;;13.50;96.20;;;;;;4218722;28;20043;-54
2023/04/18 22:08:21;;;;;;;17.80;13.20;;;13.40;96.20;;;;;;4231880;28;20410;-56
2023/04/18 22:10:24;;;;;;;17.65;12.63;;;13.40;96.00;;;;;;4225468;28;20046;-55
2023/04/18 22:12:25;;;;;;;15.30;12.55;;;13.40;96.10;;;;;;4218080;28;20126;-55
2023/04/18 22:14:27;;;;;;;15.50;12.57;;;13.30;96.20;;;;;;4215649;28;20048;-55
2023/04/18 22:16:30;;;;;;;16.38;12.88;;;13.30;96.10;;;;;;4224707;28;20043;-57
2023/04/18 22:18:32;;;;;;;18.33;12.18;;;13.40;96.10;;;;;;4214114;28;20056;-55
2023/04/18 22:20:36;;;;;;;16.92;13.07;;;13.30;96.10;;;;;;4220439;28;20101;-56
2023/04/18 22:22:38;;;;;;;17.10;13.13;;;13.30;96.10;;;;;;4220634;28;20452;-52
2023/04/18 22:24:41;;;;;;;17.40;13.15;;;13.30;96.20;;;;;;4205839;28;20425;-54
2023/04/18 22:26:45;;;;;;;17.90;13.02;;;13.30;96.20;;;;;;4213312;28;20184;-56
2023/04/18 22:28:48;;;;;;;16.52;12.20;;;13.30;96.10;;;;;;4214445;28;20048;-54
2023/04/18 22:30:49;;;;;;;19.02;13.27;;;13.30;96.00;;;;;;4214702;28;20052;-56
2023/04/18 22:32:52;;;;;;;16.70;12.68;;;13.20;96.20;;;;;;4213991;28;20090;-61
2023/04/18 22:34:54;;;;;;;16.13;13.13;;;13.20;96.20;;;;;;4214229;28;20075;-55
2023/04/18 22:36:56;;;;;;;14.38;12.32;;;13.10;96.20;;;;;;4213517;28;20169;-54
2023/04/18 22:38:58;;;;;;;15.90;13.18;;;13.10;96.30;;;;;;4214551;28;20043;-55
2023/04/18 22:41:01;;;;;;;15.15;11.73;;;13.10;96.30;;;;;;4214438;28;20085;-56
2023/04/18 22:43:04;;;;;;;16.23;12.90;;;13.20;96.70;;;;;;4214876;28;20071;-56
2023/04/18 22:45:07;;;;;;;15.15;12.52;;;13.20;96.60;;;;;;4214684;28;20040;-56
2023/04/18 22:47:09;;;;;;;21.05;13.93;;;13.20;96.30;;;;;;4212378;28;20044;-55
2023/04/18 22:49:11;;;;;;;20.65;15.30;;;13.20;96.20;;;;;;4213215;28;20067;-54
2023/04/18 22:51:13;;;;;;;17.08;14.52;;;13.10;96.30;;;;;;4214128;28;20052;-55
2023/04/18 22:53:15;;;;;;;22.00;14.93;;;13.10;96.30;;;;;;4214252;28;20055;-53
2023/04/18 22:55:18;;;;;;;21.25;13.90;;;13.20;96.20;;;;;;4214102;28;20064;-55
2023/04/18 22:57:22;;;;;;;17.83;13.65;;;13.10;96.10;;;;;;4213419;28;20044;-55
2023/04/18 22:59:24;;;;;;;18.30;13.02;;;13.10;96.40;;;;;;4212945;28;20048;-55
2023/04/18 23:01:26;;;;;;;14.98;13.10;;;13.10;96.20;;;;;;4223879;28;20459;-55
2023/04/18 23:03:30;;;;;;;19.92;13.77;;;13.20;96.30;;;;;;4230518;28;20044;-54
2023/04/18 23:05:33;;;;;;;17.75;13.32;;;13.10;96.30;;;;;;4230241;28;20092;-56
2023/04/18 23:07:35;;;;;;;17.67;13.10;;;13.10;96.30;;;;;;4230822;28;20051;-57
2023/04/18 23:09:37;;;;;;;18.73;14.07;;;13.10;96.40;;;;;;4230987;28;20050;-54
2023/04/18 23:11:39;;;;;;;16.75;12.82;;;13.10;96.40;;;;;;4231519;28;20469;-61
2023/04/18 23:13:45;;;;;;;16.85;13.77;;;13.10;96.50;;;;;;4231531;28;20062;-59
2023/04/18 23:15:48;;;;;;;22.05;13.48;;;13.10;96.60;;;;;;4230095;28;20255;-53
2023/04/18 23:17:51;;;;;;;17.58;14.43;;;13.00;96.60;;;;;;4230443;28;20070;-56
2023/04/18 23:19:56;;;;;;;19.35;13.35;;;13.00;96.60;;;;;;4230723;28;20387;-55
2023/04/18 23:21:58;;;;;;;16.17;13.45;;;13.00;96.90;;;;;;4230927;28;20385;-56
2023/04/18 23:24:00;;;;;;;19.40;13.25;;;13.00;96.70;;;;;;4230796;28;20047;-55
2023/04/18 23:26:09;;;;;;;15.35;12.60;;;12.90;96.80;;;;;;4229703;28;20047;-56
2023/04/18 23:28:12;;;;;;;15.32;12.55;;;12.90;97.00;;;;;;4230730;28;20048;-55
2023/04/18 23:30:16;;;;;;;16.88;13.05;;;12.80;97.00;;;;;;4230707;28;20039;-56
2023/04/18 23:32:18;;;;;;;14.88;11.75;;;12.90;97.00;;;;;;4230258;28;20494;-55
2023/04/18 23:34:20;;;;;;;18.88;13.25;;;12.90;97.00;;;;;;4230879;28;20048;-60
2023/04/18 23:36:22;;;;;;;19.05;12.43;;;12.90;97.00;;;;;;4229807;28;20047;-55
2023/04/18 23:38:25;;;;;;;15.43;11.80;;;12.90;96.90;;;;;;4230683;28;20112;-57
2023/04/18 23:40:27;;;;;;;15.52;12.43;;;12.90;97.00;;;;;;4230480;28;20051;-54
2023/04/18 23:42:33;;;;;;;16.88;13.32;;;12.90;96.90;;;;;;4230963;28;20079;-55
2023/04/18 23:44:38;;;;;;;16.70;12.88;;;12.80;97.00;;;;;;4230780;28;20055;-54
2023/04/18 23:46:41;;;;;;;16.80;13.18;;;12.80;97.10;;;;;;4230918;28;20044;-61
2023/04/18 23:48:43;;;;;;;14.07;12.18;;;12.70;97.20;;;;;;4232248;28;20046;-56
2023/04/18 23:50:46;;;;;;;17.23;12.43;;;12.70;97.10;;;;;;4232434;28;20156;-55
2023/04/18 23:52:48;;;;;;;16.60;13.25;;;12.70;97.20;;;;;;4231438;28;20044;-52
2023/04/18 23:54:50;;;;;;;16.08;13.18;;;12.70;97.20;;;;;;4230501;28;20054;-53
2023/04/18 23:56:52;;;;;;;18.27;13.38;;;12.60;97.30;;;;;;4229379;28;20040;-53
2023/04/18 23:58:54;;;;;;;14.48;12.40;;;12.60;97.20;;;;;;4230438;28;20054;-54
